Time;durP1;ratioP1;P1;durP2;ratioP2;P2;SDS_P1;SDS_P2;PMS_P1;PMS_P2;Temp;Humidity;BMP_temperature;BMP_pressure;BME280_temperature;BME280_humidity;BME280_pressure;Samples;Min_cycle;Max_cycle;Signal;HPM_P1;HPM_P2
2021/04/09 00:02:04;;;;;;;14.38;6.35;;;;;;;-1.25;83.80;97459.67;1725910;81;21335;-90
2021/04/09 00:04:31;;;;;;;15.72;6.33;;;;;;;-1.23;84.03;97452.49;1723133;82;21112;-88
2021/04/09 00:06:58;;;;;;;12.47;7.42;;;;;;;-1.20;83.82;97454.23;1715413;82;21108;-89
2021/04/09 00:09:25;;;;;;;11.90;5.70;;;;;;;-1.15;83.73;97450.26;1731861;81;21212;-90
2021/04/09 00:11:53;;;;;;;11.63;5.20;;;;;;;-1.14;83.64;97442.77;1721887;82;21150;-91
2021/04/09 00:14:21;;;;;;;12.53;6.35;;;;;;;-1.15;83.54;97446.36;1706222;82;21157;-90
2021/04/09 00:16:48;;;;;;;11.00;4.85;;;;;;;-1.11;83.48;97448.42;1766567;80;21113;-90
2021/04/09 00:19:19;;;;;;;11.60;6.65;;;;;;;-1.09;83.34;97444.34;1761702;81;21160;-89
2021/04/09 00:21:46;;;;;;;9.98;5.87;;;;;;;-1.09;83.28;97446.94;1746951;80;21127;-90
2021/04/09 00:24:14;;;;;;;12.18;7.55;;;;;;;-1.04;83.21;97441.98;1735812;82;21117;-89
2021/04/09 00:26:42;;;;;;;5.25;3.12;;;;;;;-1.01;83.04;97441.61;1735246;82;21485;-90
2021/04/09 00:29:12;;;;;;;11.60;6.92;;;;;;;-1.02;82.88;97442.59;1737168;82;21101;-90
2021/04/09 00:31:40;;;;;;;9.75;5.10;;;;;;;-1.00;82.75;97446.63;1723807;82;21147;-89
2021/04/09 00:34:08;;;;;;;5.03;3.27;;;;;;;-1.03;82.55;97434.48;1719504;82;21115;-90
2021/04/09 00:36:37;;;;;;;13.32;7.28;;;;;;;-1.01;82.51;97440.30;1732257;82;21120;-89
2021/04/09 00:39:07;;;;;;;6.55;3.75;;;;;;;-0.98;82.37;97426.95;1725857;82;21142;-90
2021/04/09 00:41:42;;;;;;;7.72;4.25;;;;;;;-0.96;82.20;97434.07;1711476;82;21104;-90
2021/04/09 00:44:11;;;;;;;5.40;3.50;;;;;;;-0.95;82.06;97435.68;1715087;81;21119;-89
2021/04/09 00:46:40;;;;;;;5.83;4.33;;;;;;;-0.94;81.93;97443.80;1737791;82;21165;-90
2021/04/09 00:49:08;;;;;;;10.32;5.42;;;;;;;-0.97;81.83;97444.17;1712631;82;21108;-89
2021/04/09 00:51:37;;;;;;;6.75;3.92;;;;;;;-0.99;81.76;97443.52;1704543;82;21163;-90
2021/04/09 00:54:06;;;;;;;5.20;2.90;;;;;;;-1.04;81.82;97430.27;1711994;82;21199;-89
2021/04/09 00:56:36;;;;;;;9.80;4.75;;;;;;;-1.04;81.77;97429.77;1717724;82;21860;-90
2021/04/09 00:59:04;;;;;;;12.00;4.42;;;;;;;-1.02;81.70;97437.39;1720863;82;21167;-90
2021/04/09 01:01:33;;;;;;;9.33;4.87;;;;;;;-1.02;81.65;97441.30;1731898;82;21140;-90
2021/04/09 01:04:01;;;;;;;8.90;3.67;;;;;;;-0.99;81.58;97441.73;1719179;82;21224;-89
2021/04/09 01:06:28;;;;;;;10.43;5.47;;;;;;;-0.94;81.44;97441.20;1720357;82;21131;-89
2021/04/09 01:08:55;;;;;;;7.12;3.77;;;;;;;-0.91;81.32;97443.42;1720910;82;21336;-90
2021/04/09 01:11:22;;;;;;;5.12;2.95;;;;;;;-0.92;81.22;97441.81;1679057;84;21472;-89
2021/04/09 01:13:49;;;;;;;7.10;4.58;;;;;;;-0.93;81.17;97444.91;1652150;84;21155;-89
2021/04/09 01:16:45;;;;;;;10.38;5.33;;;;;;;-0.95;81.12;97447.39;1662630;84;21116;-89
2021/04/09 01:20:09;;;;;;;8.23;4.25;;;;;;;-0.93;81.09;97442.80;1653744;84;21120;-89
2021/04/09 01:22:49;;;;;;;6.50;4.05;;;;;;;-0.94;81.04;97443.80;1669141;84;21147;-89
2021/04/09 01:26:11;;;;;;;9.85;4.25;;;;;;;-1.02;81.04;97441.30;1668070;84;21155;-89
2021/04/09 01:29:11;;;;;;;8.58;4.80;;;;;;;-1.07;81.10;97443.66;1661877;84;21167;-89
2021/04/09 01:31:57;;;;;;;7.72;4.95;;;;;;;-1.14;81.09;97439.66;1655774;84;21193;-89
2021/04/09 01:34:32;;;;;;;5.17;3.27;;;;;;;-1.21;81.10;97438.30;1668649;84;21464;-89
2021/04/09 01:37:14;;;;;;;4.92;3.25;;;;;;;-1.25;81.17;97439.67;1662729;84;21195;-90
2021/04/09 01:39:48;;;;;;;7.72;4.00;;;;;;;-1.22;81.24;97430.19;1670678;84;21139;-89
2021/04/09 01:42:18;;;;;;;9.13;4.35;;;;;;;-1.18;81.17;97425.42;1670762;84;21138;-89
2021/04/09 01:44:50;;;;;;;4.83;3.15;;;;;;;-1.17;81.09;97439.23;1652007;84;21167;-89
2021/04/09 01:47:26;;;;;;;6.75;3.55;;;;;;;-1.18;80.97;97442.83;1658478;84;21132;-89
2021/04/09 01:49:58;;;;;;;5.85;2.77;;;;;;;-1.18;80.96;97435.02;1650410;84;21169;-89
2021/04/09 01:52:29;;;;;;;5.95;3.50;;;;;;;-1.20;80.91;97430.81;1648748;84;21143;-90
2021/04/09 01:54:58;;;;;;;3.58;2.20;;;;;;;-1.22;80.85;97427.59;1663620;84;21132;-89
2021/04/09 01:57:28;;;;;;;5.72;4.05;;;;;;;-1.18;80.83;97435.83;1667595;84;21151;-89
2021/04/09 01:59:59;;;;;;;4.63;2.73;;;;;;;-1.20;80.71;97432.11;1659762;84;21179;-89
2021/04/09 02:02:28;;;;;;;9.20;4.58;;;;;;;-1.22;80.64;97432.80;1670405;84;21143;-89
2021/04/09 02:04:57;;;;;;;10.00;4.30;;;;;;;-1.26;80.54;97431.55;1665653;84;21538;-89
2021/04/09 02:07:26;;;;;;;11.00;4.00;;;;;;;-1.32;80.52;97432.27;1659720;84;21119;-88
2021/04/09 02:09:56;;;;;;;6.87;3.55;;;;;;;-1.36;80.67;97438.03;1686758;83;21215;-89
2021/04/09 02:12:23;;;;;;;4.83;3.40;;;;;;;-1.38;80.67;97430.41;1687610;83;21503;-88
2021/04/09 02:14:56;;;;;;;3.72;2.62;;;;;;;-1.40;80.68;97433.69;1709788;83;21106;-89
2021/04/09 02:17:21;;;;;;;9.78;3.92;;;;;;;-1.40;80.69;97427.19;1700816;83;21134;-88
2021/04/09 02:19:48;;;;;;;8.35;3.80;;;;;;;-1.42;80.71;97431.74;1684307;83;21169;-88
2021/04/09 02:22:17;;;;;;;9.78;4.30;;;;;;;-1.43;80.72;97431.43;1685207;83;21502;-89
2021/04/09 02:24:47;;;;;;;3.42;2.75;;;;;;;-1.45;80.72;97420.41;1686467;83;21135;-89
2021/04/09 02:27:15;;;;;;;6.05;3.60;;;;;;;-1.49;80.76;97429.57;1697733;83;21158;-88
2021/04/09 02:29:44;;;;;;;7.42;3.58;;;;;;;-1.50;80.70;97430.56;1711221;83;21170;-88
2021/04/09 02:32:16;;;;;;;6.42;3.92;;;;;;;-1.52;80.63;97427.34;1702232;83;21144;-89
2021/04/09 02:34:43;;;;;;;7.60;3.87;;;;;;;-1.55;80.64;97425.91;1702361;83;21140;-89
2021/04/09 02:37:10;;;;;;;7.45;3.67;;;;;;;-1.54;80.63;97424.13;1702245;83;21515;-90
2021/04/09 02:39:40;;;;;;;8.03;3.62;;;;;;;-1.53;80.57;97422.64;1697618;83;21105;-89
2021/04/09 02:42:09;;;;;;;5.22;3.52;;;;;;;-1.53;80.42;97429.14;1713601;83;21138;-89
2021/04/09 02:44:36;;;;;;;8.08;4.60;;;;;;;-1.50;80.36;97427.47;1705452;83;21510;-88
2021/04/09 02:47:18;;;;;;;6.47;4.03;;;;;;;-1.47;80.24;97428.89;1702854;83;21201;-89
2021/04/09 02:50:14;;;;;;;8.55;4.10;;;;;;;-1.49;80.12;97420.47;1782234;79;23141;-89
2021/04/09 02:52:51;;;;;;;9.80;4.15;;;;;;;-1.56;80.08;97432.56;1734931;82;21134;-90
2021/04/09 02:55:23;;;;;;;3.55;2.60;;;;;;;-1.54;80.10;97428.02;1723499;83;21109;-89
2021/04/09 02:57:53;;;;;;;5.97;3.80;;;;;;;-1.57;80.06;97424.46;1743564;82;21500;-89
2021/04/09 03:00:22;;;;;;;8.08;3.17;;;;;;;-1.58;80.03;97421.55;1743198;82;21528;-89
2021/04/09 03:02:50;;;;;;;4.17;2.67;;;;;;;-1.56;79.99;97427.37;1752437;82;21137;-90
2021/04/09 03:05:20;;;;;;;7.67;3.65;;;;;;;-1.56;80.04;97424.27;1746253;82;21175;-88
2021/04/09 03:07:48;;;;;;;9.03;4.05;;;;;;;-1.57;80.02;97423.97;1689438;83;21190;-89
2021/04/09 03:10:18;;;;;;;9.13;4.20;;;;;;;-1.57;79.93;97423.97;1695949;83;21526;-88
2021/04/09 03:12:46;;;;;;;5.85;3.12;;;;;;;-1.58;79.83;97430.16;1691204;83;21173;-90
2021/04/09 03:15:30;;;;;;;4.62;2.70;;;;;;;-1.54;79.86;97426.72;1711615;83;21550;-89
2021/04/09 03:18:07;;;;;;;5.95;3.70;;;;;;;-1.52;79.78;97427.34;1697743;84;21106;-89
2021/04/09 03:20:35;;;;;;;7.22;4.05;;;;;;;-1.57;79.66;97427.06;1691252;84;21149;-89
2021/04/09 03:23:03;;;;;;;5.58;3.22;;;;;;;-1.61;79.73;97424.02;1700500;84;21172;-89
2021/04/09 03:25:32;;;;;;;10.82;5.05;;;;;;;-1.63;79.71;97431.20;1674731;84;21329;-88
2021/04/09 03:28:00;;;;;;;10.20;4.75;;;;;;;-1.65;79.68;97426.68;1705715;83;21548;-89
2021/04/09 03:30:27;;;;;;;7.60;4.60;;;;;;;-1.64;79.58;97421.79;1697056;84;21244;-89
2021/04/09 03:32:54;;;;;;;7.47;3.72;;;;;;;-1.61;79.46;97426.63;1697336;84;21137;-89
2021/04/09 03:35:21;;;;;;;5.05;3.17;;;;;;;-1.57;79.33;97421.36;1704386;83;21119;-88
2021/04/09 03:37:49;;;;;;;8.83;4.40;;;;;;;-1.58;79.30;97422.35;1710598;84;21286;-89
2021/04/09 03:40:18;;;;;;;6.45;3.50;;;;;;;-1.60;79.28;97424.83;1701448;84;21582;-88
2021/04/09 03:42:45;;;;;;;6.50;3.67;;;;;;;-1.61;79.25;97419.31;1690293;84;21177;-88
2021/04/09 03:45:13;;;;;;;10.50;3.58;;;;;;;-1.61;79.16;97412.33;1697784;84;21136;-89
2021/04/09 03:47:40;;;;;;;3.95;2.42;;;;;;;-1.61;79.11;97418.02;1706633;84;21249;-88
2021/04/09 03:50:08;;;;;;;4.42;2.75;;;;;;;-1.64;79.10;97424.88;1708028;84;21295;-89
2021/04/09 03:52:38;;;;;;;7.10;4.25;;;;;;;-1.65;79.13;97423.27;1698813;83;21174;-88
2021/04/09 03:55:14;;;;;;;5.47;3.75;;;;;;;-1.67;79.14;97423.46;1696664;83;21153;-89
2021/04/09 03:57:41;;;;;;;7.85;3.70;;;;;;;-1.66;79.15;97419.06;1707614;83;21136;-90
2021/04/09 04:00:09;;;;;;;6.35;3.98;;;;;;;-1.70;79.12;97410.80;1704639;84;21492;-89
2021/04/09 04:02:37;;;;;;;5.70;3.12;;;;;;;-1.68;79.07;97414.05;1709352;83;21090;-90
2021/04/09 04:05:06;;;;;;;5.42;3.85;;;;;;;-1.63;78.84;97410.90;1704362;83;21135;-89
2021/04/09 04:07:44;;;;;;;7.00;3.87;;;;;;;-1.63;78.79;97418.20;1698706;84;21155;-90
2021/04/09 04:10:12;;;;;;;5.33;2.98;;;;;;;-1.66;78.66;97413.38;1692714;83;21444;-90
2021/04/09 04:12:39;;;;;;;8.10;4.03;;;;;;;-1.65;78.58;97414.98;1705234;84;21524;-89
2021/04/09 04:15:07;;;;;;;7.97;3.92;;;;;;;-1.65;78.56;97416.77;1693895;84;21139;-90
2021/04/09 04:17:34;;;;;;;4.92;3.20;;;;;;;-1.58;78.42;97413.75;1691647;84;21482;-89
2021/04/09 04:20:02;;;;;;;6.00;3.90;;;;;;;-1.43;78.23;97418.43;1697977;84;21171;-89
2021/04/09 04:22:29;;;;;;;5.65;3.40;;;;;;;-1.26;77.90;97418.55;1696938;83;21158;-89
2021/04/09 04:24:56;;;;;;;7.92;4.15;;;;;;;-1.08;77.44;97422.03;1690297;84;21146;-88
2021/04/09 04:27:23;;;;;;;7.60;3.83;;;;;;;-0.83;77.18;97415.98;1691799;83;21136;-88
2021/04/09 04:29:50;;;;;;;7.67;3.67;;;;;;;-0.39;76.73;97422.77;1689555;84;21504;-89
2021/04/09 04:32:17;;;;;;;7.37;3.92;;;;;;;-0.01;76.31;97423.22;1696119;83;21158;-89
2021/04/09 04:34:44;;;;;;;7.80;4.35;;;;;;;0.45;75.25;97410.45;1688760;83;21604;-89
2021/04/09 04:37:11;;;;;;;5.55;3.10;;;;;;;0.97;75.61;97402.47;1686024;84;21104;-89
2021/04/09 04:39:38;;;;;;;7.85;4.08;;;;;;;1.64;74.08;97409.37;1706157;83;21160;-89
2021/04/09 04:42:06;;;;;;;7.00;4.10;;;;;;;2.22;73.11;97417.84;1691242;84;21162;-90
2021/04/09 04:44:33;;;;;;;7.67;4.00;;;;;;;2.80;70.29;97408.17;1698721;84;21141;-90
2021/04/09 04:47:00;;;;;;;6.87;4.10;;;;;;;3.17;70.30;97417.55;1702514;83;21177;-89
2021/04/09 04:49:27;;;;;;;9.80;4.35;;;;;;;3.98;70.47;97420.67;1715469;82;21590;-89
2021/04/09 04:51:54;;;;;;;7.33;4.60;;;;;;;4.84;68.67;97418.43;1662353;84;21250;-89
2021/04/09 04:54:21;;;;;;;8.73;5.15;;;;;;;5.46;67.38;97418.98;1683934;84;21543;-90
2021/04/09 04:56:48;;;;;;;9.10;4.87;;;;;;;5.81;64.79;97409.84;1673987;84;21179;-90
2021/04/09 04:59:15;;;;;;;8.30;4.72;;;;;;;6.10;63.06;97412.11;1728424;82;21146;-90
2021/04/09 05:01:42;;;;;;;8.65;5.42;;;;;;;6.48;62.69;97412.94;1698368;84;21191;-90
2021/04/09 05:04:09;;;;;;;9.55;4.70;;;;;;;6.87;61.37;97422.38;1706585;84;21106;-89
2021/04/09 05:06:36;;;;;;;8.65;4.95;;;;;;;7.17;60.28;97412.92;1687513;84;21149;-89
2021/04/09 05:09:04;;;;;;;9.65;4.72;;;;;;;7.43;58.53;97405.75;1708154;82;21115;-89
2021/04/09 05:11:30;;;;;;;7.42;4.50;;;;;;;7.92;59.43;97414.73;1700053;83;21129;-90
2021/04/09 05:13:58;;;;;;;7.12;4.65;;;;;;;8.44;57.14;97410.98;1694944;83;21102;-89
2021/04/09 05:16:25;;;;;;;7.22;4.47;;;;;;;8.47;55.11;97409.20;1715545;83;21518;-87
2021/04/09 05:18:51;;;;;;;8.40;4.92;;;;;;;8.67;55.76;97408.12;1689276;83;21092;-87
2021/04/09 05:21:18;;;;;;;8.50;5.67;;;;;;;9.06;51.97;97414.65;1695949;83;21144;-88
2021/04/09 05:23:45;;;;;;;9.43;4.97;;;;;;;8.50;49.08;97412.66;1701777;83;21176;-87
2021/04/09 05:26:12;;;;;;;8.83;5.85;;;;;;;8.71;51.89;97412.38;1699331;83;21488;-88
2021/04/09 05:28:41;;;;;;;10.25;6.70;;;;;;;9.18;49.80;97412.66;1703529;83;21151;-88
2021/04/09 05:31:08;;;;;;;9.80;6.30;;;;;;;9.22;48.83;97405.81;1702803;83;21492;-87
2021/04/09 05:33:35;;;;;;;11.10;7.30;;;;;;;9.28;46.70;97407.45;1711528;83;21129;-88
2021/04/09 05:36:03;;;;;;;8.80;6.28;;;;;;;9.27;48.79;97403.21;1695467;83;21198;-87
2021/04/09 05:38:30;;;;;;;9.93;6.00;;;;;;;9.79;48.06;97403.94;1697739;83;21156;-87
2021/04/09 05:40:57;;;;;;;7.85;6.15;;;;;;;10.09;47.44;97412.09;1695733;83;21146;-88
2021/04/09 05:43:24;;;;;;;9.23;6.35;;;;;;;10.59;47.69;97401.55;1702428;83;21150;-88
2021/04/09 05:45:51;;;;;;;9.75;6.37;;;;;;;10.85;46.09;97403.79;1711714;83;21224;-87
2021/04/09 05:48:19;;;;;;;8.93;6.17;;;;;;;11.37;45.44;97402.84;1714252;83;21122;-89
2021/04/09 05:50:46;;;;;;;9.50;6.22;;;;;;;11.42;46.02;97406.84;1695136;83;21165;-88
2021/04/09 05:53:14;;;;;;;8.83;6.20;;;;;;;11.76;45.09;97400.48;1689642;84;21155;-87
2021/04/09 05:55:42;;;;;;;10.13;7.30;;;;;;;11.76;43.99;97398.36;1698682;84;21150;-87
2021/04/09 05:58:09;;;;;;;10.08;6.60;;;;;;;11.68;43.53;97395.69;1698057;84;21522;-88
2021/04/09 06:00:36;;;;;;;10.08;6.62;;;;;;;11.71;41.11;97405.80;1707464;84;21497;-88
2021/04/09 06:03:04;;;;;;;8.45;6.37;;;;;;;11.67;41.36;97395.42;1701631;84;21502;-88
2021/04/09 06:05:31;;;;;;;10.80;6.97;;;;;;;11.87;41.51;97398.12;1687228;84;21127;-88
2021/04/09 06:07:59;;;;;;;10.00;7.45;;;;;;;12.32;42.36;97403.64;1692658;84;21167;-88
2021/04/09 06:10:26;;;;;;;10.78;7.45;;;;;;;12.82;40.63;97400.03;1697985;84;21179;-87
2021/04/09 06:12:53;;;;;;;10.63;7.20;;;;;;;13.08;41.37;97393.49;1706691;84;21128;-88
2021/04/09 06:15:21;;;;;;;9.55;6.58;;;;;;;13.25;40.60;97389.73;1699126;84;21515;-88
2021/04/09 06:17:48;;;;;;;9.90;6.72;;;;;;;13.39;40.42;97385.38;1706941;84;21148;-88
2021/04/09 06:20:16;;;;;;;8.93;6.35;;;;;;;13.73;40.04;97378.71;1695403;84;21481;-87
2021/04/09 06:22:43;;;;;;;9.18;6.25;;;;;;;13.91;38.40;97373.22;1684789;84;21524;-91
2021/04/09 06:25:11;;;;;;;8.28;6.45;;;;;;;14.09;38.69;97374.41;1697123;84;21133;-89
2021/04/09 06:27:39;;;;;;;7.25;5.40;;;;;;;14.41;38.67;97373.80;1701892;84;21139;-92
2021/04/09 06:30:07;;;;;;;9.40;6.33;;;;;;;14.38;35.94;97370.38;1706066;84;21203;-90
2021/04/09 06:32:35;;;;;;;7.62;5.33;;;;;;;14.16;36.73;97366.32;1699017;84;21141;-90
2021/04/09 06:35:03;;;;;;;7.35;5.62;;;;;;;14.10;36.66;97368.00;1700842;84;21167;-89
2021/04/09 06:37:30;;;;;;;8.50;6.15;;;;;;;14.05;34.97;97374.16;1697041;84;21146;-88
2021/04/09 06:39:57;;;;;;;8.10;5.90;;;;;;;14.25;37.28;97374.52;1698514;84;21213;-91
2021/04/09 06:42:24;;;;;;;7.78;5.22;;;;;;;15.28;37.58;97368.98;1695955;84;21176;-88
2021/04/09 06:44:52;;;;;;;7.55;4.80;;;;;;;15.91;35.59;97371.23;1659517;84;21150;-88
2021/04/09 06:47:21;;;;;;;5.85;4.30;;;;;;;15.98;35.72;97368.96;1689548;84;21138;-88
2021/04/09 06:49:48;;;;;;;6.12;4.85;;;;;;;16.43;34.48;97371.89;1679889;83;21150;-89
2021/04/09 06:52:16;;;;;;;6.90;4.62;;;;;;;16.56;33.67;97363.61;1722384;83;21164;-90
2021/04/09 06:54:44;;;;;;;6.75;4.50;;;;;;;16.96;33.95;97369.27;1693132;83;21133;-90
2021/04/09 06:57:13;;;;;;;6.05;4.20;;;;;;;17.44;33.99;97339.48;1684070;84;21145;-91
2021/04/09 06:59:44;;;;;;;6.60;4.62;;;;;;;17.82;33.29;97358.47;1673669;84;21482;-91
2021/04/09 07:02:15;;;;;;;;;;;;;;;18.10;31.33;97362.58;1708627;84;21177;-89
2021/04/09 07:04:45;;;;;;;7.95;4.70;;;;;;;17.80;32.18;97362.80;1696578;83;20175;-91
2021/04/09 07:07:17;;;;;;;6.45;4.92;;;;;;;17.15;28.34;97365.34;1677845;85;22146;-91
2021/04/09 07:09:46;;;;;;;7.97;5.78;;;;;;;16.38;30.78;97381.91;1699360;83;21106;-90
2021/04/09 07:12:29;;;;;;;7.90;5.40;;;;;;;15.33;30.43;97376.12;1701948;83;21152;-90
2021/04/09 07:14:59;;;;;;;7.28;5.40;;;;;;;15.61;31.06;97369.04;1688528;84;21173;-90
2021/04/09 07:17:46;;;;;;;6.67;4.80;;;;;;;15.72;31.47;97367.80;1692123;83;21114;-90
2021/04/09 07:20:24;;;;;;;6.42;4.90;;;;;;;16.58;31.14;97364.89;1684365;84;21169;-91
2021/04/09 07:22:58;;;;;;;6.50;4.62;;;;;;;16.61;28.50;97362.98;1678368;84;21194;-91
2021/04/09 07:25:32;;;;;;;6.90;5.50;;;;;;;16.66;29.52;97363.97;1697440;84;21135;-93
2021/04/09 07:28:24;;;;;;;6.72;5.25;;;;;;;16.62;30.03;97359.22;1690543;83;21145;-91
2021/04/09 07:30:57;;;;;;;7.80;5.45;;;;;;;16.85;30.31;97363.33;1680570;84;21118;-91
2021/04/09 07:33:26;;;;;;;8.30;5.72;;;;;;;16.44;28.81;97358.75;1700323;83;21141;-91
2021/04/09 07:36:01;;;;;;;7.33;4.97;;;;;;;16.69;30.69;97353.48;1698186;83;21143;-90
2021/04/09 07:38:32;;;;;;;7.08;5.55;;;;;;;17.20;29.26;97366.59;1701887;83;21371;-91
2021/04/09 07:41:06;;;;;;;6.22;5.05;;;;;;;17.60;29.49;97350.66;1695543;83;21137;-90
2021/04/09 07:43:38;;;;;;;7.67;5.53;;;;;;;17.60;28.47;97352.01;1696644;84;21112;-91
2021/04/09 07:46:08;;;;;;;7.22;5.53;;;;;;;17.92;28.58;97348.84;1705136;84;21501;-91
2021/04/09 07:48:39;;;;;;;;;;;;;;;17.87;29.05;97355.66;1711275;83;21170;-91
2021/04/09 07:51:08;;;;;;;9.03;5.33;;;;;;;17.89;29.27;97345.44;1673612;83;20221;-91
2021/04/09 07:53:41;;;;;;;5.50;4.65;;;;;;;18.50;29.06;97359.91;1686119;84;21165;-91
2021/04/09 07:56:16;;;;;;;8.20;4.97;;;;;;;18.64;26.08;97345.30;1690145;84;21154;-91
2021/04/09 07:58:45;;;;;;;5.28;4.22;;;;;;;18.68;27.89;97343.56;1693561;84;21114;-90
2021/04/09 08:01:23;;;;;;;6.17;4.87;;;;;;;19.11;27.68;97346.88;1688014;84;21106;-91
2021/04/09 08:03:52;;;;;;;7.37;4.85;;;;;;;19.21;26.66;97340.41;1671074;84;21098;-90
2021/04/09 08:06:27;;;;;;;5.45;3.70;;;;;;;18.73;27.28;97349.36;1690780;84;21118;-92
2021/04/09 08:08:57;;;;;;;4.08;3.50;;;;;;;19.17;24.40;97315.27;1693092;84;21146;-91
2021/04/09 08:11:28;;;;;;;;;;;;;;;18.32;25.04;97324.95;1702368;84;21493;-90
2021/04/09 08:14:09;;;;;;;4.40;2.83;;;;;;;16.66;24.98;97326.48;1707745;84;20221;-90
2021/04/09 08:16:49;;;;;;;5.20;3.20;;;;;;;15.85;26.00;97330.95;1691743;84;21169;-90
2021/04/09 08:19:24;;;;;;;4.83;3.37;;;;;;;15.45;27.31;97331.84;1688222;84;21130;-90
2021/04/09 08:22:01;;;;;;;3.42;2.90;;;;;;;16.04;26.64;97313.48;1697547;84;21169;-90
2021/04/09 08:24:32;;;;;;;4.37;3.30;;;;;;;15.13;27.98;97328.59;1694098;83;21103;-91
2021/04/09 08:27:00;;;;;;;5.80;3.22;;;;;;;15.00;27.32;97306.62;1703941;84;21514;-91
2021/04/09 08:29:31;;;;;;;3.30;2.77;;;;;;;13.84;27.94;97312.26;1687991;84;21508;-91
2021/04/09 08:32:02;;;;;;;5.92;3.22;;;;;;;12.82;29.48;97293.59;1711808;83;21131;-90
2021/04/09 08:34:30;;;;;;;7.03;3.57;;;;;;;12.44;30.48;97327.82;1705785;84;21189;-90
2021/04/09 08:36:59;;;;;;;5.05;3.15;;;;;;;12.39;30.84;97295.94;1682675;84;21143;-91
2021/04/09 08:39:27;;;;;;;4.72;3.40;;;;;;;12.23;30.11;97316.98;1690725;83;21141;-89
2021/04/09 08:41:57;;;;;;;5.05;2.80;;;;;;;12.66;32.11;97316.01;1694021;84;21160;-90
2021/04/09 08:44:25;;;;;;;8.08;3.27;;;;;;;13.24;30.49;97293.61;1691482;83;21133;-91
2021/04/09 08:46:53;;;;;;;5.72;3.30;;;;;;;12.67;30.39;97304.33;1713744;83;21168;-90
2021/04/09 08:49:23;;;;;;;4.08;2.90;;;;;;;12.60;31.62;97310.47;1710978;83;21098;-88
2021/04/09 08:51:52;;;;;;;5.90;3.65;;;;;;;13.05;30.63;97279.59;1702370;84;21137;-90
2021/04/09 08:54:29;;;;;;;5.22;3.47;;;;;;;12.56;31.06;97328.05;1670187;83;21206;-90
2021/04/09 08:57:03;;;;;;;4.42;2.67;;;;;;;12.92;31.73;97306.82;1670869;85;21572;-90
2021/04/09 08:59:42;;;;;;;5.30;3.35;;;;;;;12.32;31.65;97322.02;1685525;83;21143;-90
2021/04/09 09:02:24;;;;;;;5.53;3.50;;;;;;;11.99;31.45;97310.16;1693588;84;21111;-93
2021/04/09 09:05:03;;;;;;;4.67;3.05;;;;;;;11.93;32.23;97295.81;1691293;84;21142;-93
2021/04/09 09:07:53;;;;;;;6.33;2.65;;;;;;;10.61;33.29;97282.78;1698416;83;21498;-90
2021/04/09 09:10:36;;;;;;;5.78;3.55;;;;;;;9.76;35.87;97298.53;1695216;83;21173;-91
2021/04/09 09:13:13;;;;;;;5.22;3.37;;;;;;;9.47;37.87;97283.52;1677791;83;21159;-91
2021/04/09 09:15:47;;;;;;;5.78;3.33;;;;;;;8.93;38.85;97272.51;1713843;83;21124;-92
2021/04/09 09:18:31;;;;;;;5.65;3.65;;;;;;;8.28;38.85;97296.36;1692176;83;21142;-91
2021/04/09 09:21:09;;;;;;;5.35;2.77;;;;;;;7.66;40.61;97289.50;1690919;84;21157;-92
2021/04/09 09:24:18;;;;;;;6.62;3.33;;;;;;;7.37;41.94;97278.78;1677603;84;21506;-93
2021/04/09 09:26:50;;;;;;;6.45;3.80;;;;;;;7.26;43.22;97280.97;1688248;84;21148;-91
2021/04/09 09:29:29;;;;;;;7.90;4.10;;;;;;;7.59;42.29;97290.17;1694452;83;21515;-93
2021/04/09 09:32:07;;;;;;;6.92;3.50;;;;;;;7.61;42.94;97291.28;1705819;83;21108;-92
2021/04/09 09:34:45;;;;;;;4.60;2.40;;;;;;;7.58;42.21;97262.72;1700490;83;21142;-93
2021/04/09 09:37:19;;;;;;;6.05;3.55;;;;;;;7.46;43.05;97274.70;1707739;83;21138;-93
2021/04/09 09:39:58;;;;;;;5.53;2.58;;;;;;;7.39;42.94;97261.67;1704098;84;21153;-91
2021/04/09 09:42:30;;;;;;;5.28;2.67;;;;;;;7.56;43.38;97241.85;1694851;84;21132;-91
2021/04/09 09:45:09;;;;;;;4.78;2.65;;;;;;;7.53;41.86;97243.66;1677713;85;21145;-92
2021/04/09 09:47:41;;;;;;;2.85;2.17;;;;;;;7.57;42.41;97235.53;1690262;84;21166;-92
2021/04/09 09:50:13;;;;;;;5.40;2.12;;;;;;;7.31;41.37;97257.31;1709170;84;21187;-92
2021/04/09 09:52:47;;;;;;;4.15;1.98;;;;;;;7.24;42.80;97248.78;1697080;83;21491;-91
2021/04/09 09:55:31;;;;;;;2.12;1.80;;;;;;;7.11;41.05;97201.12;1684368;83;21510;-90
2021/04/09 09:58:16;;;;;;;4.53;2.45;;;;;;;6.94;40.02;97247.27;1678504;85;21103;-91
2021/04/09 10:01:06;;;;;;;6.55;1.67;;;;;;;6.96;42.54;97240.42;1692000;83;21218;-91
2021/04/09 10:03:38;;;;;;;3.00;2.33;;;;;;;7.18;42.82;97229.94;1671217;85;21138;-91
2021/04/09 10:06:12;;;;;;;3.02;1.80;;;;;;;7.27;42.98;97219.28;1685817;84;21135;-91
2021/04/09 10:08:42;;;;;;;4.55;2.30;;;;;;;7.52;43.66;97201.17;1690243;84;21127;-91
2021/04/09 10:11:19;;;;;;;3.62;2.20;;;;;;;7.62;42.46;97229.02;1682012;84;22152;-91
2021/04/09 10:13:49;;;;;;;2.70;1.90;;;;;;;7.78;42.12;97212.86;1688868;84;21182;-89
2021/04/09 10:16:22;;;;;;;;;;;;;;;7.96;43.54;97199.87;1686201;84;21517;-89
2021/04/09 10:18:54;;;;;;;4.92;1.77;;;;;;;7.99;42.74;97209.93;1671801;84;20144;-89
2021/04/09 10:21:35;;;;;;;4.87;2.50;;;;;;;8.25;43.49;97197.28;1686061;84;21164;-89
2021/04/09 10:24:18;;;;;;;3.17;2.08;;;;;;;8.22;42.21;97196.47;1681679;84;21189;-91
2021/04/09 10:26:58;;;;;;;4.90;2.52;;;;;;;8.16;40.14;97192.16;1690263;83;21463;-90
2021/04/09 10:29:29;;;;;;;3.85;2.52;;;;;;;8.21;41.68;97199.36;1666211;85;21150;-91
2021/04/09 10:32:00;;;;;;;5.95;2.25;;;;;;;8.14;41.53;97171.80;1691269;83;21194;-90
2021/04/09 10:34:32;;;;;;;3.37;2.20;;;;;;;8.19;41.44;97177.16;1665234;85;21540;-92
2021/04/09 10:37:03;;;;;;;4.03;2.17;;;;;;;8.15;41.79;97179.20;1689339;84;21268;-90
2021/04/09 10:39:33;;;;;;;3.25;2.08;;;;;;;8.38;41.75;97186.08;1713675;83;21151;-91
2021/04/09 10:42:02;;;;;;;4.65;2.47;;;;;;;8.44;41.85;97171.86;1685857;83;21183;-90
2021/04/09 10:44:32;;;;;;;4.03;2.05;;;;;;;8.54;42.66;97162.72;1677934;84;21214;-91
2021/04/09 10:47:06;;;;;;;2.10;1.72;;;;;;;8.66;40.58;97148.02;1684572;84;21111;-91
2021/04/09 10:49:43;;;;;;;3.12;1.85;;;;;;;8.41;40.57;97148.59;1699792;84;21138;-93
2021/04/09 10:52:14;;;;;;;4.45;2.22;;;;;;;7.96;41.23;97154.98;1681228;83;21115;-92
2021/04/09 10:54:45;;;;;;;3.62;2.08;;;;;;;8.04;41.61;97161.16;1676189;84;21200;-91
2021/04/09 10:57:19;;;;;;;3.08;2.10;;;;;;;8.13;42.24;97142.48;1674003;84;21137;-92
2021/04/09 10:59:50;;;;;;;5.30;2.55;;;;;;;8.33;42.73;97150.63;1662811;85;21154;-91
2021/04/09 11:02:26;;;;;;;7.00;2.37;;;;;;;8.56;42.19;97122.30;1666049;85;21187;-92
2021/04/09 11:04:57;;;;;;;3.67;1.87;;;;;;;8.69;42.31;97152.27;1704212;83;21167;-92
2021/04/09 11:07:47;;;;;;;;;;;;;;;8.48;39.24;97133.34;1703806;83;21131;-91
2021/04/09 11:13:22;;;;;;;2.10;1.55;;;;;;;8.48;41.27;97123.57;1794131;78;23160;-91
2021/04/09 11:15:50;;;;;;;4.00;1.80;;;;;;;8.33;39.03;97124.20;1722287;82;21122;-91
2021/04/09 11:18:17;;;;;;;2.05;1.57;;;;;;;8.44;41.16;97126.42;1720429;82;21136;-91
2021/04/09 11:20:47;;;;;;;4.85;2.10;;;;;;;8.59;39.68;97129.74;1718754;82;21524;-91
2021/04/09 11:23:18;;;;;;;4.33;1.52;;;;;;;8.69;41.65;97143.02;1714158;82;21168;-91
2021/04/09 11:25:50;;;;;;;1.70;1.32;;;;;;;8.77;40.40;97136.48;1717391;82;21176;-91
2021/04/09 11:28:29;;;;;;;4.37;2.47;;;;;;;8.79;40.13;97114.55;1717371;82;21160;-91
2021/04/09 11:31:05;;;;;;;3.58;2.05;;;;;;;8.81;40.29;97123.81;1713995;83;21273;-89
2021/04/09 11:33:38;;;;;;;3.98;2.25;;;;;;;8.84;39.26;97133.88;1715339;82;21140;-90
2021/04/09 11:36:22;;;;;;;2.58;1.72;;;;;;;8.98;41.10;97128.14;1718769;82;21182;-90
2021/04/09 11:38:55;;;;;;;2.90;1.40;;;;;;;9.14;40.06;97127.19;1711331;82;21132;-90
2021/04/09 11:41:37;;;;;;;2.98;1.80;;;;;;;9.19;39.62;97120.09;1766636;79;22957;-90
2021/04/09 11:44:34;;;;;;;4.22;2.05;;;;;;;9.09;39.82;97115.27;1692809;82;21166;-93
2021/04/09 11:47:25;;;;;;;5.90;2.17;;;;;;;9.15;39.73;97107.12;1697068;84;21147;-93
2021/04/09 11:50:18;;;;;;;2.83;1.57;;;;;;;9.31;40.74;97113.81;1701126;82;21620;-92
2021/04/09 11:52:59;;;;;;;3.20;1.62;;;;;;;9.44;40.14;97111.49;1704183;82;21157;-92
2021/04/09 11:55:36;;;;;;;2.47;1.60;;;;;;;9.10;37.86;97122.94;1684330;82;21099;-90
2021/04/09 11:58:06;;;;;;;3.50;2.20;;;;;;;9.10;40.32;97103.63;1686650;82;21186;-92
2021/04/09 12:00:35;;;;;;;5.10;2.42;;;;;;;9.32;40.47;97110.11;1688604;82;21177;-90
2021/04/09 12:03:09;;;;;;;3.20;1.80;;;;;;;9.44;38.56;97117.31;1706123;82;21135;-90